Data for 01/03/2006

Time Sea-Level Adjusted Pressure Absolute Pressure Temperature Relative Humidity Dew Point   
(mb) (inHg) (mb) (inHg) (C) (F) (%) (C) (F)
00:05 1005 29.68 835 24.66 0.9 33.7 96 0.3 32.6
00:10 1005 29.68 835 24.66 0.9 33.6 96 0.3 32.6
00:15 1005 29.68 835 24.66 0.9 33.6 96 0.3 32.6
00:20 1005 29.68 834 24.63 0.8 33.5 96 0.3 32.6
00:25 1005 29.68 834 24.63 0.8 33.5 97 0.3 32.6
00:30 1005 29.68 834 24.63 0.7 33.3 97 0.3 32.5
00:35 1005 29.68 834 24.63 0.8 33.4 97 0.3 32.6
00:40 1005 29.68 834 24.63 0.6 33.1 97 0.2 32.4
00:45 1005 29.68 834 24.63 0.6 33.1 97 0.2 32.4
00:50 1005 29.68 834 24.63 0.6 33.1 98 0.3 32.5
00:55 1005 29.68 834 24.63 0.6 33 98 0.2 32.4
01:00 1005 29.68 834 24.63 0.6 33.1 98 0.3 32.5
01:05 1005 29.68 834 24.63 0.6 33.1 97 0.2 32.4
01:10 1005 29.68 834 24.63 0.6 33 98 0.2 32.4
01:15 1005 29.68 834 24.63 0.6 33 98 0.2 32.4
01:20 1005 29.68 834 24.63 0.4 32.7 98 0.1 32.2
01:25 1005 29.68 834 24.63 0.3 32.6 98 0.1 32.2
01:30 1005 29.68 834 24.63 0.3 32.5 99 0.1 32.2
01:35 1005 29.68 834 24.63 0.2 32.4 99 0.1 32.2
01:40 1005 29.68 834 24.63 0.2 32.4 99 0.1 32.1
01:45 1005 29.68 834 24.63 0.2 32.4 99 0.1 32.2
01:50 1005 29.68 834 24.63 0.2 32.4 99 0.1 32.2
01:55 1005 29.68 834 24.63 0.3 32.5 99 0.1 32.3
02:00 1005 29.68 834 24.63 0.2 32.4 99 0.1 32.2
02:05 1005 29.68 834 24.63 0.2 32.4 99 0.1 32.2
02:10 1005 29.68 834 24.63 0.2 32.3 99 0.1 32.2
02:15 1005 29.68 834 24.63 0.2 32.3 99 0.1 32.1
02:20 1005 29.68 834 24.63 0.3 32.6 100 0.2 32.4
02:25 1005 29.68 835 24.66 0.5 32.8 99 0.4 32.7
02:30 1005 29.68 835 24.66 0.5 32.9 99 0.4 32.7
02:35 1005 29.68 835 24.66 0.4 32.7 99 0.3 32.5
02:40 1006 29.71 835 24.66 0.4 32.7 99 0.3 32.6
02:45 1006 29.71 835 24.66 0.3 32.5 99 0.1 32.3
02:50 1006 29.71 835 24.66 0.2 32.4 99 0.1 32.1
02:55 1006 29.71 835 24.66 0.1 32.2 99 -0 31.9
03:00 1006 29.71 835 24.66 0.1 32.1 99 -0.1 31.8
03:05 1006 29.71 835 24.66 0 32 99 -0.1 31.7
03:10 1006 29.71 835 24.66 -0.1 31.8 99 -0.2 31.6
03:15 1006 29.71 835 24.66 -0.1 31.8 99 -0.2 31.6
03:20 1006 29.71 835 24.66 0 32 99 -0.1 31.8
03:25 1006 29.71 835 24.66 -0 31.9 99 -0.2 31.7
03:30 1006 29.71 835 24.66 0 32 99 -0.2 31.7
03:35 1006 29.71 835 24.66 0.1 32.1 99 -0.1 31.8
03:40 1006 29.71 835 24.66 0.1 32.1 99 -0.1 31.8
03:45 1006 29.71 835 24.66 -0 32 99 -0.2 31.7
03:50 1006 29.71 835 24.66 -0 31.9 99 -0.2 31.7
03:55 1006 29.71 836 24.69 0 32 99 -0.1 31.7
04:00 1006 29.71 836 24.69 -0 32 99 -0.2 31.7
04:05 1006 29.71 836 24.69 -0.1 31.9 99 -0.2 31.6
04:10 1007 29.74 836 24.69 -0 31.9 99 -0.2 31.7
04:15 1007 29.74 836 24.69 -0 32 99 -0.2 31.6
04:20 1007 29.74 836 24.69 0 32 99 -0.1 31.8
04:25 1007 29.74 836 24.69 0.1 32.1 99 -0.1 31.8
04:30 1007 29.74 836 24.69 0.1 32.2 99 -0 32
04:35 1007 29.74 836 24.69 0.2 32.3 99 -0 32
04:40 1007 29.74 836 24.69 0.1 32.2 99 -0.1 31.8
04:45 1007 29.74 837 24.72 0.1 32.2 99 -0.1 31.9
04:50 1007 29.74 837 24.72 0.1 32.2 99 -0.1 31.8
04:55 1007 29.74 837 24.72 0.1 32.2 99 -0.1 31.9
05:00 1008 29.77 837 24.72 0.1 32.2 99 -0.1 31.9
05:05 1008 29.77 837 24.72 0.2 32.4 99 0 32.1
05:10 1008 29.77 837 24.72 0.2 32.4 98 -0 32
05:15 1008 29.77 837 24.72 0.1 32.2 99 -0 31.9
05:20 1008 29.77 837 24.72 0.1 32.2 98 -0.1 31.8
05:25 1008 29.77 837 24.72 0 32.1 99 -0.1 31.7
05:30 1008 29.77 837 24.72 0.1 32.1 99 -0.2 31.7
05:35 1008 29.77 838 24.75 0.1 32.1 99 -0.1 31.8
05:40 1008 29.77 838 24.75 0 32.1 99 -0.1 31.8
05:45 1009 29.8 838 24.75 0.1 32.1 99 -0.1 31.9
05:50 1009 29.8 838 24.75 0.1 32.2 99 -0.1 31.9
05:55 1009 29.8 838 24.75 0.1 32.1 99 -0.1 31.8
06:00 1009 29.8 838 24.75 0 32 99 -0.2 31.7
06:05 1009 29.8 838 24.75 -0 32 99 -0.2 31.7
06:10 1009 29.8 838 24.75 -0 31.9 99 -0.2 31.7
06:15 1009 29.8 838 24.75 -0.1 31.8 99 -0.2 31.6
06:20 1009 29.8 839 24.78 -0.1 31.8 99 -0.2 31.6
06:25 1009 29.8 839 24.78 -0.2 31.7 99 -0.3 31.5
06:30 1010 29.83 839 24.78 -0.1 31.7 99 -0.3 31.5
06:35 1010 29.83 839 24.78 -0.1 31.8 99 -0.2 31.6
06:40 1010 29.83 839 24.78 -0.1 31.9 99 -0.2 31.7
06:45 1010 29.83 839 24.78 -0 31.9 99 -0.1 31.8
06:50 1010 29.83 839 24.78 0.1 32.1 99 -0 32
06:55 1010 29.83 839 24.78 0.1 32.2 99 0.1 32.1
07:00 1010 29.83 839 24.78 0.2 32.4 99 0.1 32.2
07:05 1010 29.83 840 24.81 0.2 32.4 99 0.1 32.2
07:10 1010 29.83 840 24.81 0.2 32.4 99 0.1 32.2
07:15 1011 29.85 840 24.81 0.2 32.4 99 0.1 32.2
07:20 1011 29.85 840 24.81 0.2 32.4 100 0.2 32.3
07:25 1011 29.85 840 24.81 0.2 32.4 100 0.2 32.3
07:30 1011 29.85 840 24.81 0.2 32.4 99 0.1 32.2
07:35 1011 29.85 840 24.81 0.2 32.4 100 0.2 32.3
07:40 1011 29.85 840 24.81 0.2 32.4 100 0.2 32.3
07:45 1011 29.85 840 24.81 0.2 32.4 99 0.2 32.3
07:50 1011 29.85 840 24.81 0.2 32.4 99 0.2 32.3
07:55 1011 29.85 840 24.81 0.2 32.4 99 0.2 32.3
08:00 1011 29.85 841 24.83 0.2 32.4 99 0.1 32.2
08:05 1011 29.85 841 24.83 0.2 32.4 99 0.1 32.2
08:10 1012 29.88 841 24.83 0.2 32.4 99 0.1 32.2
08:15 1012 29.88 841 24.83 0.3 32.6 99 0.1 32.3
08:20 1012 29.88 841 24.83 0.5 32.8 99 0.2 32.4
08:25 1012 29.88 841 24.83 0.6 33 98 0.3 32.6
08:30 1012 29.88 841 24.83 0.7 33.2 97 0.3 32.5
08:35 1012 29.88 841 24.83 0.7 33.3 97 0.3 32.6
08:40 1012 29.88 841 24.83 0.7 33.3 97 0.3 32.5
08:45 1012 29.88 841 24.83 0.8 33.5 96 0.3 32.5
08:50 1012 29.88 842 24.86 0.8 33.4 95 0.1 32.3
08:55 1012 29.88 842 24.86 0.8 33.5 95 0.1 32.1
09:00 1013 29.91 842 24.86 0.8 33.5 94 -0 31.9
09:05 1013 29.91 842 24.86 0.8 33.4 94 -0.1 31.8
09:10 1013 29.91 842 24.86 0.9 33.5 93 -0.1 31.8
09:15 1013 29.91 842 24.86 0.8 33.5 93 -0.2 31.6
09:20 1013 29.91 842 24.86 0.9 33.6 90 -0.6 30.9
09:25 1013 29.91 842 24.86 0.6 33.1 90 -0.8 30.5
09:30 1013 29.91 842 24.86 0.7 33.2 88 -1.1 30
09:35 1013 29.91 842 24.86 0.8 33.5 88 -1 30.2
09:40 1013 29.91 843 24.89 1 33.8 87 -0.9 30.3
09:45 1013 29.91 843 24.89 1.1 33.9 90 -0.3 31.4
09:50 1014 29.94 843 24.89 0.7 33.3 93 -0.3 31.5
09:55 1014 29.94 843 24.89 0.8 33.5 93 -0.1 31.8
10:00 1014 29.94 843 24.89 1.3 34.3 91 -0.1 31.9
10:05 1014 29.94 843 24.89 1.9 35.4 85 -0.4 31.2
10:10 1014 29.94 843 24.89 2.2 36 83 -0.5 31.2
10:15 1014 29.94 843 24.89 2.2 35.9 83 -0.4 31.3
10:20 1014 29.94 843 24.89 1.9 35.5 85 -0.3 31.5
10:25 1014 29.94 843 24.89 1.7 35.1 86 -0.3 31.4
10:30 1014 29.94 843 24.89 1.6 34.9 85 -0.6 30.8
10:35 1014 29.94 844 24.92 1.3 34.4 84 -1.1 30
10:40 1014 29.94 844 24.92 1.5 34.7 83 -1.1 30
10:45 1015 29.97 844 24.92 2 35.6 81 -1 30.2
10:50 1015 29.97 844 24.92 2.5 36.5 76 -1.3 29.7
10:55 1015 29.97 844 24.92 2.9 37.1 74 -1.3 29.7
11:00 1015 29.97 844 24.92 3 37.4 73 -1.3 29.6
11:05 1015 29.97 844 24.92 3.1 37.5 72 -1.5 29.2
11:10 1015 29.97 844 24.92 2.9 37.1 72 -1.6 29
11:15 1015 29.97 844 24.92 2.2 35.9 76 -1.6 29.1
11:20 1015 29.97 844 24.92 1.8 35.3 76 -2 28.5
11:25 1015 29.97 844 24.92 1.9 35.5 75 -2.1 28.3
11:30 1015 29.97 844 24.92 2.5 36.5 73 -1.9 28.6
11:35 1015 29.97 844 24.92 2.8 37.1 69 -2.4 27.8
11:40 1015 29.97 844 24.92 3.3 37.9 67 -2.4 27.8
11:45 1015 29.97 844 24.92 3.7 38.6 67 -1.9 28.5
11:50 1015 29.97 844 24.92 4.2 39.6 65 -1.8 28.8
11:55 1015 29.97 844 24.92 4.3 39.8 65 -1.7 29
12:00 1015 29.97 844 24.92 4.3 39.8 64 -1.8 28.8
12:05 1015 29.97 844 24.92 4.3 39.7 65 -1.6 29.1
12:10 1015 29.97 844 24.92 4.5 40 67 -1.2 29.9
12:15 1015 29.97 844 24.92 4 39.2 67 -1.5 29.4
12:20 1015 29.97 844 24.92 4.4 39.9 64 -1.8 28.7
12:25 1015 29.97 844 24.92 5.2 41.4 62 -1.5 29.3
12:30 1014 29.94 844 24.92 6 42.7 58 -1.8 28.8
12:35 1015 29.97 844 24.92 6.3 43.3 58 -1.3 29.6
12:40 1015 29.97 844 24.92 6.3 43.4 57 -1.5 29.4
12:45 1015 29.97 844 24.92 6.6 43.8 56 -1.6 29.2
12:50 1015 29.97 844 24.92 6.5 43.7 58 -1.1 30.1
12:55 1015 29.97 844 24.92 5.7 42.2 61 -1.4 29.5
13:00 1015 29.97 844 24.92 5.5 41.9 61 -1.4 29.4
13:05 1015 29.97 844 24.92 5 41 63 -1.5 29.2
13:10 1015 29.97 844 24.92 5 40.9 62 -1.7 28.9
13:15 1015 29.97 844 24.92 4.8 40.6 62 -1.9 28.6
13:20 1015 29.97 844 24.92 5.3 41.6 59 -2 28.4
13:25 1015 29.97 844 24.92 5.6 42.1 58 -2 28.4
13:30 1015 29.97 844 24.92 5.4 41.7 59 -1.9 28.5
13:35 1015 29.97 844 24.92 5.2 41.3 60 -1.9 28.6
13:40 1015 29.97 844 24.92 4.6 40.2 63 -1.8 28.8
13:45 1015 29.97 844 24.92 5.2 41.3 58 -2.5 27.6
13:50 1015 29.97 844 24.92 5.5 41.9 54 -3 26.5
13:55 1015 29.97 844 24.92 5.5 41.8 55 -2.8 27
14:00 1015 29.97 844 24.92 5.8 42.5 56 -2.4 27.7
14:05 1015 29.97 844 24.92 5.6 42.2 56 -2.5 27.6
14:10 1015 29.97 844 24.92 4.8 40.7 57 -2.9 26.7
14:15 1015 29.97 844 24.92 5 41 59 -2.4 27.6
14:20 1015 29.97 844 24.92 5 41 57 -2.9 26.8
14:25 1015 29.97 844 24.92 5.2 41.3 56 -2.8 26.9
14:30 1015 29.97 844 24.92 5.7 42.3 55 -2.7 27.2
14:35 1015 29.97 845 24.95 5.7 42.3 53 -3.1 26.4
14:40 1015 29.97 845 24.95 5.6 42.2 53 -3.2 26.2
14:45 1015 29.97 845 24.95 5.4 41.7 51 -3.9 25
14:50 1016 30 845 24.95 5.1 41.1 51 -4.3 24.3
14:55 1016 30 845 24.95 5 41.1 53 -3.8 25.2
15:00 1016 30 845 24.95 4.9 40.9 53 -3.9 25.1
15:05 1016 30 845 24.95 5.1 41.1 54 -3.5 25.7
15:10 1016 30 845 24.95 5 41.1 54 -3.6 25.5
15:15 1016 30 845 24.95 5.1 41.2 53 -3.6 25.5
15:20 1016 30 845 24.95 5.1 41.2 55 -3.2 26.3
15:25 1016 30 845 24.95 5 41 55 -3.3 26
15:30 1016 30 845 24.95 3.9 39.1 59 -3.3 26.1
15:35 1016 30 845 24.95 2.9 37.3 62 -3.6 25.5
15:40 1016 30 846 24.98 3.4 38.2 59 -3.8 25.2
15:45 1016 30 845 24.95 3.4 38.1 60 -3.7 25.4
15:50 1016 30 846 24.98 2.9 37.2 60 -4.2 24.4
15:55 1016 30 846 24.98 3.3 37.9 57 -4.4 24.1
16:00 1017 30.03 846 24.98 3.5 38.3 55 -4.7 23.6
16:05 1017 30.03 846 24.98 3.8 38.8 56 -4.3 24.3
16:10 1017 30.03 846 24.98 3.7 38.6 56 -4.4 24.1
16:15 1017 30.03 846 24.98 3.6 38.5 54 -4.9 23.2
16:20 1017 30.03 846 24.98 3.7 38.6 54 -4.7 23.5
16:25 1017 30.03 846 24.98 3.7 38.6 53 -5 23
16:30 1017 30.03 846 24.98 3.5 38.3 56 -4.4 24.1
16:35 1017 30.03 846 24.98 3.4 38.1 55 -4.7 23.5
16:40 1017 30.03 846 24.98 2.4 36.3 60 -4.6 23.8
16:45 1017 30.03 846 24.98 1.1 33.9 66 -4.5 23.8
16:50 1017 30.03 846 24.98 0.4 32.8 74 -3.6 25.4
16:55 1017 30.03 847 25.01 -0.2 31.6 74 -4.3 24.2
17:00 1017 30.03 847 25.01 0.5 32.9 69 -4.4 24
17:05 1018 30.06 847 25.01 1 33.7 68 -4.4 24.1
17:10 1018 30.06 847 25.01 0.7 33.2 74 -3.4 25.8
17:15 1018 30.06 847 25.01 -0.5 31.1 78 -3.9 25
17:20 1018 30.06 847 25.01 -0.6 30.9 82 -3.4 26
17:25 1018 30.06 847 25.01 -1.3 29.7 84 -3.6 25.5
17:30 1018 30.06 847 25.01 -1.6 29 86 -3.7 25.3
17:35 1018 30.06 847 25.01 -1.9 28.6 84 -4.3 24.3
17:40 1018 30.06 847 25.01 -1.6 29.1 79 -4.8 23.3
17:45 1018 30.06 847 25.01 -0.7 30.8 76 -4.4 24.2
17:50 1018 30.06 847 25.01 -0.2 31.6 75 -4.1 24.7
17:55 1018 30.06 847 25.01 -0.6 31 80 -3.6 25.4
18:00 1018 30.06 847 25.01 -0.7 30.7 80 -3.7 25.3
18:05 1018 30.06 847 25.01 -0.6 30.9 79 -3.9 25
18:10 1018 30.06 847 25.01 -0.8 30.5 79 -4 24.8
18:15 1018 30.06 847 25.01 -1.2 29.8 82 -3.9 24.9
18:20 1018 30.06 847 25.01 -1.6 29 83 -4.1 24.6
18:25 1018 30.06 847 25.01 -2.1 28.1 86 -4.2 24.5
18:30 1018 30.06 847 25.01 -2.5 27.4 87 -4.5 23.9
18:35 1018 30.06 847 25.01 -2.1 28.2 79 -5.3 22.4
18:40 1018 30.06 847 25.01 -1.3 29.6 77 -4.8 23.3
18:45 1018 30.06 847 25.01 -1.5 29.4 78 -4.8 23.4
18:50 1018 30.06 847 25.01 -1.9 28.6 81 -4.7 23.5
18:55 1018 30.06 848 25.04 -2.3 27.9 82 -5 23
19:00 1018 30.06 848 25.04 -2.1 28.3 79 -5.2 22.6
19:05 1018 30.06 848 25.04 -2.1 28.2 80 -5.1 22.8
19:10 1018 30.06 848 25.04 -2.2 28.1 78 -5.5 22.1
19:15 1018 30.06 848 25.04 -1.8 28.7 76 -5.5 22.1
19:20 1018 30.06 848 25.04 -2.9 26.9 82 -5.5 22.1
19:25 1018 30.06 848 25.04 -2.7 27.1 78 -6.1 21
19:30 1018 30.06 848 25.04 -1.5 29.4 68 -6.6 20.1
19:35 1018 30.06 848 25.04 -1.2 29.8 69 -6.2 20.8
19:40 1019 30.09 848 25.04 -1.9 28.7 71 -6.5 20.3
19:45 1019 30.09 848 25.04 -1.5 29.3 68 -6.6 20.1
19:50 1018 30.06 848 25.04 -1.9 28.6 72 -6.2 20.8
19:55 1018 30.06 848 25.04 -2.6 27.3 77 -6 21.2
20:00 1018 30.06 848 25.04 -2.9 26.9 75 -6.6 20.1
20:05 1018 30.06 848 25.04 -2.8 27 75 -6.7 19.9
20:10 1019 30.09 848 25.04 -3 26.6 75 -6.9 19.6
20:15 1019 30.09 848 25.04 -2.9 26.8 74 -6.9 19.6
20:20 1019 30.09 848 25.04 -2.8 27 73 -7 19.3
20:25 1019 30.09 848 25.04 -2.9 26.8 74 -6.9 19.6
20:30 1019 30.09 848 25.04 -2.9 26.7 73 -7.1 19.3
20:35 1019 30.09 848 25.04 -3 26.6 73 -7.2 19.1
20:40 1019 30.09 848 25.04 -2.3 27.8 70 -7 19.3
20:45 1019 30.09 848 25.04 -1.6 29.1 67 -6.8 19.7
20:50 1019 30.09 848 25.04 -1.9 28.5 69 -6.9 19.6
20:55 1019 30.09 848 25.04 -1.8 28.7 69 -6.8 19.7
21:00 1019 30.09 848 25.04 -2 28.4 69 -7 19.4
21:05 1019 30.09 848 25.04 -1.2 29.8 61 -7.9 17.8
21:10 1019 30.09 848 25.04 -0.8 30.6 60 -7.6 18.4
21:15 1019 30.09 848 25.04 -0.5 31.2 62 -6.9 19.5
21:20 1019 30.09 848 25.04 -0.9 30.3 66 -6.6 20.1
21:25 1019 30.09 848 25.04 -1.4 29.5 66 -6.9 19.6
21:30 1019 30.09 848 25.04 -1.3 29.6 65 -7.2 19.1
21:35 1019 30.09 848 25.04 -0.8 30.6 59 -7.9 17.8
21:40 1019 30.09 848 25.04 0.3 32.6 55 -7.6 18.3
21:45 1018 30.06 848 25.04 0.6 33 55 -7.6 18.4
21:50 1018 30.06 848 25.04 -0.1 31.8 56 -7.8 18
21:55 1018 30.06 848 25.04 0.1 32.2 54 -8 17.5
22:00 1018 30.06 848 25.04 -0.3 31.5 61 -6.8 19.7
22:05 1018 30.06 848 25.04 -0.9 30.4 62 -7.2 19
22:10 1018 30.06 848 25.04 -0.9 30.5 62 -7.3 18.8
22:15 1018 30.06 848 25.04 -0.9 30.4 61 -7.5 18.6
22:20 1018 30.06 848 25.04 -0.8 30.6 60 -7.6 18.2
22:25 1019 30.09 848 25.04 -0.5 31.1 59 -7.5 18.4
22:30 1019 30.09 848 25.04 -0.2 31.6 60 -7.1 19.2
22:35 1019 30.09 848 25.04 -0.1 31.7 59 -7.3 18.8
22:40 1019 30.09 848 25.04 -0.1 31.7 59 -7.2 19
22:45 1019 30.09 848 25.04 -0.3 31.5 61 -6.9 19.6
22:50 1019 30.09 848 25.04 -1.1 30 64 -7 19.4
22:55 1019 30.09 848 25.04 -1.6 29 69 -6.7 20
23:00 1018 30.06 848 25.04 -2 28.4 71 -6.6 20.1
23:05 1018 30.06 848 25.04 -2.2 28 71 -6.7 19.9
23:10 1018 30.06 848 25.04 -2.3 27.8 70 -7 19.4
23:15 1018 30.06 848 25.04 -2.1 28.2 69 -7.1 19.3
23:20 1018 30.06 848 25.04 -2.2 28.1 71 -6.8 19.8
23:25 1018 30.06 848 25.04 -2 28.4 67 -7.4 18.7
23:30 1019 30.09 848 25.04 -1.7 29 67 -7 19.4
23:35 1019 30.09 848 25.04 -1.7 28.9 66 -7.3 18.9
23:40 1019 30.09 848 25.04 -1.4 29.4 65 -7.1 19.1
23:45 1019 30.09 848 25.04 -1.3 29.6 66 -7 19.4
23:50 1019 30.09 848 25.04 -1.3 29.7 61 -7.8 18
23:55 1019 30.09 848 25.04 -0.6 31 60 -7.4 18.7
24:00 1019 30.09 848 25.04 -0.3 31.5 59 -7.3 18.8